Time;durP1;ratioP1;P1;durP2;ratioP2;P2;SDS_P1;SDS_P2;PMS_P1;PMS_P2;Temp;Humidity;BMP_temperature;BMP_pressure;BME280_temperature;BME280_humidity;BME280_pressure;Samples;Min_cycle;Max_cycle;Signal;HPM_P1;HPM_P2
2022/08/03 00:01:30;;;;;;;2.90;2.50;;;;;;;19.87;66.49;98847.00;4469703;32;20089;-71
2022/08/03 00:03:58;;;;;;;7.00;2.50;;;;;;;19.84;67.22;98848.19;4469689;32;20101;-71
2022/08/03 00:06:25;;;;;;;5.15;3.08;;;;;;;19.95;67.16;98849.47;4480168;32;20778;-71
2022/08/03 00:08:52;;;;;;;3.03;2.60;;;;;;;19.92;67.25;98848.03;4485318;31;20458;-71
2022/08/03 00:11:19;;;;;;;4.57;2.75;;;;;;;19.83;67.97;98841.22;4485316;31;20089;-71
2022/08/03 00:13:47;;;;;;;3.55;3.00;;;;;;;19.80;68.38;98842.47;4485323;31;20089;-71
2022/08/03 00:16:14;;;;;;;5.45;2.92;;;;;;;19.78;68.55;98848.97;4485288;31;20119;-71
2022/08/03 00:18:41;;;;;;;3.30;2.78;;;;;;;19.73;68.48;98846.03;4484213;32;20096;-71
2022/08/03 00:21:08;;;;;;;3.53;2.80;;;;;;;19.72;68.22;98844.41;4485172;31;20101;-71
2022/08/03 00:23:35;;;;;;;3.42;2.90;;;;;;;19.65;68.39;98845.19;4485078;31;20088;-71
2022/08/03 00:26:22;;;;;;;4.20;2.75;;;;;;;19.69;68.17;98849.06;4485189;31;20460;-71
2022/08/03 00:28:49;;;;;;;4.05;2.87;;;;;;;19.71;68.31;98846.22;4483549;32;20092;-71
2022/08/03 00:31:16;;;;;;;3.00;2.70;;;;;;;19.77;68.69;98839.31;4485200;31;20110;-71
2022/08/03 00:34:04;;;;;;;5.95;3.08;;;;;;;19.82;69.08;98844.91;4483714;32;20123;-71
2022/08/03 00:36:32;;;;;;;3.80;3.20;;;;;;;19.88;69.16;98844.13;4484966;31;20100;-71
2022/08/03 00:38:59;;;;;;;4.10;3.17;;;;;;;19.98;68.92;98843.78;4484935;31;20176;-71
2022/08/03 00:41:27;;;;;;;3.75;3.35;;;;;;;19.99;68.67;98845.41;4484878;32;20582;-71
2022/08/03 00:43:54;;;;;;;4.32;3.75;;;;;;;20.01;68.58;98846.03;4484903;31;20127;-71
2022/08/03 00:46:21;;;;;;;4.25;2.92;;;;;;;20.01;68.59;98851.34;4484990;32;20209;-71
2022/08/03 00:48:49;;;;;;;3.90;3.17;;;;;;;19.98;68.55;98849.09;4484963;31;20500;-71
2022/08/03 00:51:17;;;;;;;4.43;3.10;;;;;;;19.96;68.42;98851.94;4484872;31;20081;-71
2022/08/03 00:53:44;;;;;;;4.05;3.45;;;;;;;19.90;68.50;98854.56;4484908;31;20092;-71
2022/08/03 00:56:14;;;;;;;3.20;2.90;;;;;;;19.84;68.91;98853.50;4483626;32;20450;-71
2022/08/03 00:58:43;;;;;;;7.22;3.70;;;;;;;19.83;69.90;98846.53;4483605;32;20788;-71
2022/08/03 01:01:11;;;;;;;4.30;3.28;;;;;;;19.89;69.78;98848.41;4484561;31;20141;-71
2022/08/03 01:03:39;;;;;;;4.53;3.12;;;;;;;19.91;70.15;98849.06;4484691;31;20092;-71
2022/08/03 01:06:43;;;;;;;4.85;3.50;;;;;;;19.93;70.28;98852.34;4484789;31;20119;-71
2022/08/03 01:09:16;;;;;;;5.30;3.47;;;;;;;19.88;70.62;98848.59;4435433;32;20093;-71
2022/08/03 01:11:50;;;;;;;4.07;3.40;;;;;;;19.86;71.19;98851.47;4434824;32;20407;-71
2022/08/03 01:14:37;;;;;;;;;;;;;;;19.92;71.49;98853.34;4424210;32;20163;-71
2022/08/03 01:17:19;;;;;;;4.22;3.65;;;;;;;19.92;71.66;98849.87;4435573;32;19985;-71
2022/08/03 01:20:01;;;;;;;4.65;3.70;;;;;;;19.88;72.17;98849.44;4422951;32;20121;-71
2022/08/03 01:22:51;;;;;;;6.00;4.07;;;;;;;19.97;72.20;98858.91;4422704;32;20128;-71
2022/08/03 01:25:39;;;;;;;5.35;3.75;;;;;;;19.95;72.66;98854.78;4422625;32;20163;-71
2022/08/03 01:28:15;;;;;;;4.30;3.90;;;;;;;19.92;73.16;98856.00;4435261;32;20194;-71
2022/08/03 01:30:44;;;;;;;5.15;4.20;;;;;;;19.87;73.52;98850.47;4435306;32;20124;-71
2022/08/03 01:33:16;;;;;;;6.20;4.03;;;;;;;19.86;73.83;98854.12;4422574;32;20158;-71
2022/08/03 01:36:04;;;;;;;5.10;4.07;;;;;;;19.94;73.77;98859.31;4422675;32;20514;-71
2022/08/03 01:38:33;;;;;;;5.72;4.47;;;;;;;19.94;73.88;98858.47;4434946;32;20139;-71
2022/08/03 01:41:05;;;;;;;4.80;4.28;;;;;;;19.92;74.14;98853.34;4434904;32;20120;-71
2022/08/03 01:43:33;;;;;;;7.82;4.62;;;;;;;19.96;74.05;98859.91;4435358;32;20580;-71
2022/08/03 01:46:21;;;;;;;9.20;4.22;;;;;;;20.10;73.99;98855.50;4478144;32;20092;-71
2022/08/03 01:48:48;;;;;;;6.37;4.70;;;;;;;20.07;74.15;98852.41;4467286;32;20132;-71
2022/08/03 01:51:17;;;;;;;8.32;4.50;;;;;;;19.99;74.55;98851.56;4468466;32;20097;-71
2022/08/03 01:53:46;;;;;;;5.43;4.70;;;;;;;19.98;75.05;98852.56;4467251;32;20470;-71
2022/08/03 01:56:13;;;;;;;5.70;4.65;;;;;;;20.01;75.04;98856.66;4467046;32;20170;-71
2022/08/03 01:58:41;;;;;;;5.72;4.22;;;;;;;19.96;75.47;98851.13;4466883;32;20100;-71
2022/08/03 02:01:09;;;;;;;5.40;4.78;;;;;;;19.96;75.61;98854.59;4467027;32;20119;-71
2022/08/03 02:03:39;;;;;;;7.35;4.65;;;;;;;19.88;76.29;98854.78;4468381;32;20112;-71
2022/08/03 02:06:28;;;;;;;5.97;5.07;;;;;;;19.90;76.37;98855.38;4467106;32;20708;-71
2022/08/03 02:09:18;;;;;;;8.77;4.35;;;;;;;19.91;76.48;98864.16;4468291;32;20453;-71
2022/08/03 02:11:46;;;;;;;5.65;5.00;;;;;;;19.92;76.53;98856.00;4466904;32;20150;-71
2022/08/03 02:14:14;;;;;;;6.15;4.80;;;;;;;19.89;76.87;98859.06;4466842;32;20146;-71
2022/08/03 02:16:42;;;;;;;4.75;4.35;;;;;;;19.90;76.96;98857.22;4466840;32;20089;-71
2022/08/03 02:19:10;;;;;;;5.32;4.70;;;;;;;19.85;77.31;98858.63;4466794;32;20105;-71
2022/08/03 02:21:37;;;;;;;6.45;4.70;;;;;;;19.85;77.44;98858.63;4468567;32;20143;-71
2022/08/03 02:24:25;;;;;;;6.15;4.53;;;;;;;19.80;77.78;98854.91;4470290;32;20081;-71
2022/08/03 02:26:54;;;;;;;6.90;4.70;;;;;;;19.79;77.96;98855.94;4470010;32;20101;-71
2022/08/03 02:29:24;;;;;;;8.93;5.00;;;;;;;19.76;78.24;98851.78;4468725;32;20105;-71
2022/08/03 02:32:11;;;;;;;5.82;5.10;;;;;;;19.79;78.39;98853.28;4469116;32;20089;-71
2022/08/03 02:34:39;;;;;;;6.30;5.03;;;;;;;19.75;78.72;98860.78;4468956;32;20628;-71
2022/08/03 02:37:09;;;;;;;6.60;4.72;;;;;;;19.72;79.05;98860.34;4477894;32;20425;-71
2022/08/03 02:39:37;;;;;;;5.05;4.55;;;;;;;19.69;79.31;98861.56;4485763;31;20092;-71
2022/08/03 02:42:05;;;;;;;7.93;5.22;;;;;;;19.75;79.12;98855.47;4484421;32;20133;-71
2022/08/03 02:44:34;;;;;;;8.00;5.78;;;;;;;19.72;79.44;98860.34;4484656;32;20154;-71
2022/08/03 02:47:05;;;;;;;7.47;5.62;;;;;;;19.69;79.69;98859.72;4485689;31;20100;-71
2022/08/03 02:49:33;;;;;;;5.90;5.05;;;;;;;19.72;79.72;98855.03;4484640;32;20104;-71
2022/08/03 02:52:19;;;;;;;7.05;5.45;;;;;;;19.70;79.84;98857.87;4485794;31;20438;-71
2022/08/03 02:54:48;;;;;;;7.40;5.50;;;;;;;19.69;79.93;98857.06;4471420;32;20089;-71
2022/08/03 02:57:17;;;;;;;8.90;5.25;;;;;;;19.64;80.30;98859.47;4484221;32;20176;-71
2022/08/03 02:59:45;;;;;;;7.57;5.30;;;;;;;19.57;80.85;98869.22;4485279;31;20088;-71
2022/08/03 03:02:14;;;;;;;6.32;5.00;;;;;;;19.54;81.33;98860.84;4484487;32;20093;-71
2022/08/03 03:04:43;;;;;;;5.95;5.35;;;;;;;19.49;81.69;98867.53;4484462;32;20133;-71
2022/08/03 03:07:31;;;;;;;6.37;5.65;;;;;;;19.47;81.87;98866.91;4469883;32;20112;-71
2022/08/03 03:10:21;;;;;;;6.30;5.45;;;;;;;19.48;82.12;98865.06;4469023;32;20176;-71
2022/08/03 03:12:54;;;;;;;6.35;5.37;;;;;;;19.54;81.87;98861.66;4469897;32;20108;-71
2022/08/03 03:15:23;;;;;;;7.37;5.60;;;;;;;19.57;81.96;98863.91;4468598;32;20616;-71
2022/08/03 03:17:52;;;;;;;5.82;5.22;;;;;;;19.58;81.90;98860.25;4470059;32;20113;-71
2022/08/03 03:20:20;;;;;;;7.07;6.00;;;;;;;19.55;82.22;98870.47;4468743;32;20096;-71
2022/08/03 03:23:00;;;;;;;6.93;6.07;;;;;;;19.54;82.36;98859.00;4468766;32;20085;-71
2022/08/03 03:25:31;;;;;;;11.40;5.75;;;;;;;19.52;82.69;98871.66;4468661;32;20138;-71
2022/08/03 03:27:59;;;;;;;9.23;5.47;;;;;;;19.52;82.84;98860.22;4469503;32;20081;-71
2022/08/03 03:30:28;;;;;;;6.43;5.28;;;;;;;19.55;82.95;98865.16;4468392;32;20134;-71
2022/08/03 03:32:57;;;;;;;7.70;5.32;;;;;;;19.52;83.19;98869.00;4468070;32;20123;-71
2022/08/03 03:35:26;;;;;;;6.53;5.62;;;;;;;19.53;83.20;98868.00;4469701;32;20111;-71
2022/08/03 03:37:53;;;;;;;7.90;5.35;;;;;;;19.54;83.15;98861.66;4482473;32;20088;-71
2022/08/03 03:40:22;;;;;;;5.80;5.28;;;;;;;19.56;83.13;98864.94;4485260;31;20096;-71
2022/08/03 03:42:50;;;;;;;6.37;5.70;;;;;;;19.55;83.30;98865.16;4485732;31;20449;-71
2022/08/03 03:45:17;;;;;;;8.50;6.00;;;;;;;19.58;83.29;98864.75;4484208;32;20469;-71
2022/08/03 03:47:45;;;;;;;10.93;6.70;;;;;;;19.53;83.56;98872.47;4485479;31;20120;-71
2022/08/03 03:50:14;;;;;;;8.75;6.12;;;;;;;19.50;83.93;98869.19;4485349;32;20148;-71
2022/08/03 03:52:41;;;;;;;8.52;6.22;;;;;;;19.52;83.97;98866.34;4484169;32;20150;-71
2022/08/03 03:55:08;;;;;;;10.27;6.40;;;;;;;19.58;83.80;98873.53;4485337;32;20088;-71
2022/08/03 03:57:35;;;;;;;9.52;6.30;;;;;;;19.63;83.61;98871.13;4485279;31;20139;-71
2022/08/03 04:00:03;;;;;;;10.32;6.20;;;;;;;19.62;83.73;98866.84;4484936;31;20092;-71
2022/08/03 04:02:30;;;;;;;7.62;5.40;;;;;;;19.67;83.63;98869.72;4484875;31;20601;-71
2022/08/03 04:10:59;;;;;;;11.20;5.65;;;;;;;19.87;82.50;98882.38;4485099;31;20529;-71
2022/08/03 04:13:49;;;;;;;6.20;5.45;;;;;;;19.96;81.99;98880.37;4484476;31;20096;-71
2022/08/03 04:16:20;;;;;;;7.55;6.10;;;;;;;20.03;81.70;98882.06;4484314;32;20125;-71
2022/08/03 04:18:51;;;;;;;7.07;5.82;;;;;;;20.10;81.48;98886.59;4483825;32;20097;-71
2022/08/03 04:21:20;;;;;;;9.85;5.70;;;;;;;20.14;81.38;98890.50;4493136;31;20497;-71
2022/08/03 04:23:48;;;;;;;6.70;5.70;;;;;;;20.21;81.07;98892.19;4499097;31;20148;-71
2022/08/03 04:26:20;;;;;;;6.50;5.70;;;;;;;20.28;80.90;98896.72;4500900;31;20123;-71
2022/08/03 04:28:50;;;;;;;7.95;5.95;;;;;;;20.39;80.75;98899.66;4499291;31;20592;-71
2022/08/03 04:31:21;;;;;;;5.78;5.20;;;;;;;20.51;79.50;98907.88;4500062;31;20095;-71
2022/08/03 04:33:51;;;;;;;7.57;4.90;;;;;;;20.62;79.25;98900.34;4501002;31;20441;-71
2022/08/03 04:36:24;;;;;;;13.65;5.90;;;;;;;20.78;78.28;98904.53;4497186;31;20476;-71
2022/08/03 04:39:05;;;;;;;9.80;6.05;;;;;;;20.94;77.74;98900.69;4483758;32;20124;-71
2022/08/03 04:41:34;;;;;;;7.40;5.30;;;;;;;21.08;76.88;98911.16;4484949;31;20097;-71
2022/08/03 04:44:23;;;;;;;7.62;5.53;;;;;;;21.29;75.75;98904.03;4484572;31;20115;-71
2022/08/03 04:46:55;;;;;;;6.75;5.57;;;;;;;21.39;75.44;98907.12;4484504;31;20118;-71
2022/08/03 04:49:24;;;;;;;8.85;6.32;;;;;;;21.58;74.68;98912.69;4483758;32;20162;-71
2022/08/03 04:51:51;;;;;;;6.35;5.62;;;;;;;21.67;73.77;98922.12;4483572;32;20104;-71
2022/08/03 04:54:18;;;;;;;9.25;5.90;;;;;;;21.89;73.13;98925.41;4483640;32;20092;-71
2022/08/03 04:56:46;;;;;;;7.00;5.25;;;;;;;22.01;72.07;98928.25;4484926;31;20810;-71
2022/08/03 04:59:13;;;;;;;9.85;5.85;;;;;;;22.14;71.53;98928.22;4484607;31;20540;-71
2022/08/03 05:01:43;;;;;;;15.52;6.87;;;;;;;22.18;71.03;98935.81;4484758;31;20089;-71
2022/08/03 05:04:10;;;;;;;6.60;5.72;;;;;;;22.22;70.70;98937.03;4484688;32;20092;-71
2022/08/03 05:06:38;;;;;;;12.65;5.70;;;;;;;22.33;70.20;98931.06;4484581;31;20072;-71
2022/08/03 05:09:14;;;;;;;8.55;5.57;;;;;;;22.42;70.43;98939.69;4483372;31;20131;-71
2022/08/03 05:12:02;;;;;;;6.78;5.85;;;;;;;22.53;68.68;98935.53;4484457;31;20111;-71
2022/08/03 05:14:29;;;;;;;48.92;10.10;;;;;;;22.64;68.67;98937.56;4482895;31;20130;-71
2022/08/03 05:16:56;;;;;;;7.80;5.50;;;;;;;22.74;68.53;98932.59;4471605;32;20096;-72
2022/08/03 05:19:24;;;;;;;8.38;5.55;;;;;;;22.72;67.89;98953.34;4484243;31;20481;-71
2022/08/03 05:21:51;;;;;;;9.00;5.32;;;;;;;22.92;67.11;98945.25;4483432;31;20096;-71
2022/08/03 05:24:19;;;;;;;7.37;4.75;;;;;;;23.09;66.56;98950.09;4483628;31;20161;-71
2022/08/03 05:26:46;;;;;;;8.63;5.37;;;;;;;23.11;65.70;98946.19;4484096;32;20119;-71
2022/08/03 05:29:13;;;;;;;9.43;5.60;;;;;;;23.26;65.33;98950.44;4484286;32;20467;-71
2022/08/03 05:31:40;;;;;;;10.00;5.35;;;;;;;23.24;65.02;98947.16;4484071;31;20088;-71
2022/08/03 05:34:07;;;;;;;6.45;5.03;;;;;;;23.39;64.41;98955.69;4483971;31;20088;-71
2022/08/03 05:36:35;;;;;;;6.28;5.03;;;;;;;23.53;63.95;98951.09;4479896;31;20571;-71
2022/08/03 05:39:02;;;;;;;5.35;4.72;;;;;;;23.52;63.29;98954.78;4481828;32;20092;-71
2022/08/03 05:41:29;;;;;;;11.85;5.22;;;;;;;23.53;63.52;98951.09;4483910;31;20088;-71
2022/08/03 05:44:04;;;;;;;6.20;5.10;;;;;;;23.58;63.27;98956.59;4483429;32;20407;-71
2022/08/03 05:46:31;;;;;;;10.00;5.68;;;;;;;23.59;63.07;98955.56;4484090;31;20139;-71
2022/08/03 05:48:58;;;;;;;6.15;5.22;;;;;;;23.60;62.81;98959.06;4483729;31;20128;-71
2022/08/03 05:51:26;;;;;;;6.07;4.72;;;;;;;23.52;62.51;98955.59;4483833;32;20115;-72
2022/08/03 05:53:53;;;;;;;5.93;5.20;;;;;;;23.57;62.89;98960.28;4483723;31;20096;-71
2022/08/03 05:56:23;;;;;;;12.55;5.45;;;;;;;23.75;62.35;98959.53;4484282;32;20104;-71
2022/08/03 05:58:51;;;;;;;16.92;6.20;;;;;;;23.93;61.63;98961.47;4485304;31;20588;-71
2022/08/03 06:01:22;;;;;;;6.70;5.07;;;;;;;24.06;61.05;98969.41;4485899;31;20149;-71
2022/08/03 06:03:50;;;;;;;5.75;5.18;;;;;;;24.24;60.61;98968.59;4484769;32;20442;-71
2022/08/03 06:06:18;;;;;;;7.87;5.43;;;;;;;24.25;60.17;98970.25;4485118;31;20100;-72
2022/08/03 06:08:45;;;;;;;11.02;5.78;;;;;;;24.22;60.62;98970.66;4486111;31;20101;-71
2022/08/03 06:11:13;;;;;;;7.68;5.50;;;;;;;24.29;59.52;98970.63;4485454;31;20157;-71
2022/08/03 06:13:40;;;;;;;9.32;5.25;;;;;;;24.51;59.42;98976.38;4485032;31;20559;-71
2022/08/03 06:16:07;;;;;;;7.22;5.10;;;;;;;24.48;59.15;98978.66;4484002;31;20129;-71
2022/08/03 06:18:35;;;;;;;6.35;5.22;;;;;;;24.41;59.47;98979.56;4482936;32;20157;-71
2022/08/03 06:21:03;;;;;;;7.95;5.68;;;;;;;24.51;59.07;98975.53;4477689;32;20115;-71
2022/08/03 06:23:43;;;;;;;12.82;5.62;;;;;;;24.43;59.14;98982.81;4484677;31;20163;-71
2022/08/03 06:26:19;;;;;;;8.85;5.93;;;;;;;24.43;58.73;98979.34;4481930;32;20103;-71
2022/08/03 06:28:48;;;;;;;6.40;5.70;;;;;;;24.55;58.62;98987.44;4484251;31;20563;-71
2022/08/03 06:31:24;;;;;;;5.93;5.10;;;;;;;24.50;58.61;98987.28;4476493;32;20139;-71
2022/08/03 06:34:01;;;;;;;15.48;5.32;;;;;;;24.72;58.51;98982.34;4485578;31;20525;-71
2022/08/03 06:36:49;;;;;;;12.02;5.70;;;;;;;24.90;57.97;98990.34;4485024;31;20098;-71
2022/08/03 06:39:20;;;;;;;8.27;5.57;;;;;;;24.88;57.41;98983.59;4485840;32;20111;-71
2022/08/03 06:41:50;;;;;;;6.80;5.75;;;;;;;24.73;57.92;98989.34;4485389;31;20171;-71
2022/08/03 06:44:17;;;;;;;7.65;5.62;;;;;;;24.70;57.46;98989.78;4479959;32;20518;-71
2022/08/03 06:46:44;;;;;;;16.65;6.03;;;;;;;24.83;57.68;98986.13;4485161;32;20522;-71
2022/08/03 06:49:12;;;;;;;8.57;5.78;;;;;;;25.10;57.49;98983.91;4477330;31;20126;-71
2022/08/03 06:51:39;;;;;;;10.10;5.60;;;;;;;25.26;56.33;98995.91;4484552;31;20500;-71
2022/08/03 06:54:27;;;;;;;12.18;5.90;;;;;;;25.22;55.87;98990.16;4485033;32;20147;-71
2022/08/03 06:56:54;;;;;;;7.97;5.90;;;;;;;25.20;55.57;99000.28;4485487;31;20110;-71
2022/08/03 06:59:21;;;;;;;10.82;5.57;;;;;;;25.21;56.04;98993.91;4485177;31;20096;-71
2022/08/03 07:02:09;;;;;;;8.52;5.30;;;;;;;25.21;55.59;98988.53;4474327;32;20119;-71
2022/08/03 07:04:36;;;;;;;9.23;5.80;;;;;;;25.41;55.24;98992.84;4483084;32;20485;-71
2022/08/03 07:07:03;;;;;;;6.53;5.47;;;;;;;25.32;54.95;98990.44;4480490;31;20164;-71
2022/08/03 07:09:31;;;;;;;9.10;5.70;;;;;;;25.49;54.04;98995.19;4480550;32;20105;-71
2022/08/03 07:11:58;;;;;;;6.68;5.28;;;;;;;25.49;55.18;98984.44;4480030;31;20446;-71
2022/08/03 07:14:25;;;;;;;7.47;5.45;;;;;;;25.71;54.03;98998.16;4480953;32;20116;-71
2022/08/03 07:16:52;;;;;;;6.53;5.60;;;;;;;25.92;53.26;98996.78;4485083;32;20092;-71
2022/08/03 07:19:19;;;;;;;7.82;5.53;;;;;;;25.76;53.29;98990.22;4483811;31;20104;-71
2022/08/03 07:21:46;;;;;;;9.98;5.45;;;;;;;25.77;53.40;98994.53;4480419;32;20114;-71
2022/08/03 07:24:14;;;;;;;6.43;5.03;;;;;;;25.89;53.79;98991.03;4483182;31;20092;-71
2022/08/03 07:26:41;;;;;;;6.53;5.30;;;;;;;25.93;52.80;98998.41;4479875;32;20163;-71
2022/08/03 07:29:11;;;;;;;12.98;6.03;;;;;;;25.89;52.77;98993.72;4482319;32;20100;-71
2022/08/03 07:31:41;;;;;;;7.05;5.40;;;;;;;26.09;52.43;98994.25;4483481;31;20410;-71
2022/08/03 07:34:08;;;;;;;8.40;5.50;;;;;;;26.38;52.58;98995.16;4481818;31;20425;-71
2022/08/03 07:36:36;;;;;;;6.30;5.50;;;;;;;26.64;51.57;98990.34;4481580;31;20105;-71
2022/08/03 07:39:04;;;;;;;8.63;5.70;;;;;;;26.27;52.04;99003.22;4484230;31;20171;-71
2022/08/03 07:41:44;;;;;;;9.20;5.35;;;;;;;26.18;52.10;98992.84;4483587;31;20099;-71
2022/08/03 07:44:12;;;;;;;7.10;5.75;;;;;;;26.20;52.34;98998.00;4483565;31;20122;-71
2022/08/03 07:46:39;;;;;;;7.07;5.35;;;;;;;26.40;51.89;98997.63;4487677;31;20149;-71
2022/08/03 07:49:06;;;;;;;7.97;6.10;;;;;;;26.58;51.18;98996.66;4487009;31;20100;-71
2022/08/03 07:51:34;;;;;;;8.35;5.65;;;;;;;26.54;51.01;98995.50;4477474;31;20126;-71
2022/08/03 07:54:01;;;;;;;6.37;5.47;;;;;;;26.36;51.63;98989.22;4473212;31;20108;-71
2022/08/03 07:56:29;;;;;;;9.05;5.53;;;;;;;26.53;50.94;98994.69;4484060;31;20089;-71
2022/08/03 07:58:57;;;;;;;6.90;5.80;;;;;;;26.99;50.50;98991.34;4481923;31;20112;-71
2022/08/03 08:01:24;;;;;;;9.52;6.07;;;;;;;27.32;49.96;98990.66;4473590;31;20113;-71
2022/08/03 08:03:51;;;;;;;8.98;5.35;;;;;;;27.37;49.90;98988.03;4483044;31;20563;-71
2022/08/03 08:06:20;;;;;;;8.00;5.47;;;;;;;27.12;49.82;98996.44;4477036;31;20112;-71
2022/08/03 08:08:47;;;;;;;5.85;4.82;;;;;;;27.21;49.92;98989.63;4484765;31;20088;-71
2022/08/03 08:11:15;;;;;;;6.40;4.75;;;;;;;27.35;48.97;98987.47;4481043;31;20092;-71
2022/08/03 08:13:42;;;;;;;9.73;5.78;;;;;;;27.48;48.75;98986.38;4473360;31;20192;-72
2022/08/03 08:16:09;;;;;;;7.72;6.50;;;;;;;27.28;48.74;99005.59;4478734;32;20107;-71
2022/08/03 08:18:36;;;;;;;6.15;5.55;;;;;;;27.14;49.33;98993.50;4482948;31;20135;-71
2022/08/03 08:21:03;;;;;;;8.70;5.55;;;;;;;27.14;49.91;98998.88;4483140;31;20467;-71
2022/08/03 08:23:30;;;;;;;5.70;5.10;;;;;;;27.16;49.01;98994.91;4483473;31;20147;-71
2022/08/03 08:26:11;;;;;;;8.27;5.32;;;;;;;27.30;48.93;98998.12;4483130;31;20096;-71
2022/08/03 08:28:38;;;;;;;5.55;4.70;;;;;;;27.48;47.57;98996.31;4483618;31;20414;-71
2022/08/03 08:31:05;;;;;;;9.63;4.82;;;;;;;27.49;46.72;98990.66;4474481;32;20382;-71
2022/08/03 08:33:33;;;;;;;8.35;4.85;;;;;;;27.72;47.31;98992.44;4476272;31;20119;-71
2022/08/03 08:36:21;;;;;;;8.43;5.37;;;;;;;27.88;46.14;98992.66;4481837;32;20872;-71
2022/08/03 08:38:48;;;;;;;4.70;4.28;;;;;;;27.79;46.46;98995.75;4481414;32;20101;-71
2022/08/03 08:41:16;;;;;;;15.73;4.43;;;;;;;27.60;45.75;98987.13;4482517;31;20393;-71
2022/08/03 08:43:43;;;;;;;4.68;4.10;;;;;;;27.84;46.02;98991.53;4473972;32;20113;-71
2022/08/03 08:46:11;;;;;;;5.80;4.65;;;;;;;27.85;44.90;98991.28;4481156;31;20188;-71
2022/08/03 08:48:50;;;;;;;5.45;3.78;;;;;;;27.71;45.23;98993.47;4487390;31;20449;-71
2022/08/03 08:51:19;;;;;;;4.47;3.85;;;;;;;27.92;44.59;98997.31;4482679;32;20180;-70
2022/08/03 08:53:51;;;;;;;4.75;3.80;;;;;;;28.07;44.00;98986.00;4473327;31;20127;-71
2022/08/03 08:56:19;;;;;;;5.95;4.55;;;;;;;28.31;43.66;98989.31;4481270;32;20112;-71
2022/08/03 08:58:50;;;;;;;8.65;4.85;;;;;;;28.18;43.45;98984.28;4482460;31;20119;-71
2022/08/03 09:01:19;;;;;;;5.30;4.30;;;;;;;27.97;43.99;98985.84;4481785;32;20108;-71
2022/08/03 09:03:46;;;;;;;4.53;4.12;;;;;;;27.85;44.30;98987.78;4483968;31;20420;-71
2022/08/03 09:06:14;;;;;;;5.87;4.40;;;;;;;27.83;44.05;98979.09;4476589;32;20100;-71
2022/08/03 09:08:41;;;;;;;4.35;3.95;;;;;;;28.35;43.90;98986.94;4480755;31;20167;-71
2022/08/03 09:11:08;;;;;;;26.42;4.93;;;;;;;28.34;43.35;98979.91;4485849;31;20122;-71
2022/08/03 09:13:38;;;;;;;6.55;3.58;;;;;;;28.69;43.75;98981.44;4482848;31;20104;-71
2022/08/03 09:16:25;;;;;;;5.47;3.50;;;;;;;28.74;41.62;98983.44;4482960;31;20394;-71
2022/08/03 09:18:53;;;;;;;3.22;2.92;;;;;;;28.58;40.20;98983.19;4483511;31;20093;-71
2022/08/03 09:21:27;;;;;;;6.78;3.62;;;;;;;28.66;40.38;98976.56;4481956;31;20134;-71
2022/08/03 09:23:59;;;;;;;6.57;3.55;;;;;;;28.45;41.44;98978.97;4481517;31;20084;-71
2022/08/03 09:26:34;;;;;;;4.87;3.95;;;;;;;28.39;41.60;98976.44;4482606;31;20092;-71
2022/08/03 09:29:07;;;;;;;11.25;3.92;;;;;;;28.94;40.91;98974.75;4481559;31;20116;-71
2022/08/03 09:31:41;;;;;;;4.55;3.67;;;;;;;28.99;39.96;98975.62;4481393;31;20832;-71
2022/08/03 09:34:13;;;;;;;5.68;3.85;;;;;;;29.24;40.24;98984.25;4482307;31;20110;-71
2022/08/03 09:36:49;;;;;;;17.90;4.00;;;;;;;28.81;40.89;98974.06;4482132;31;20155;-71
2022/08/03 09:39:21;;;;;;;5.03;3.20;;;;;;;29.01;39.59;98964.59;4481184;32;20077;-71
2022/08/03 09:42:18;;;;;;;4.85;3.90;;;;;;;29.03;39.66;98965.94;4470039;32;20104;-71
2022/08/03 09:44:51;;;;;;;4.82;3.33;;;;;;;29.47;40.07;98965.06;4475433;32;20600;-71
2022/08/03 09:47:28;;;;;;;4.55;3.60;;;;;;;29.42;38.67;98962.31;4484352;32;20130;-71
2022/08/03 09:50:00;;;;;;;4.72;4.22;;;;;;;29.62;39.44;98955.47;4483379;31;20092;-71
2022/08/03 09:52:33;;;;;;;3.22;2.90;;;;;;;29.68;38.92;98960.62;4483557;32;20138;-71
2022/08/03 09:55:19;;;;;;;5.20;3.65;;;;;;;29.54;37.92;98959.47;4483493;31;20088;-71
2022/08/03 09:58:09;;;;;;;5.10;3.42;;;;;;;29.41;38.83;98966.06;4482534;31;20507;-71
2022/08/03 10:00:58;;;;;;;4.70;4.00;;;;;;;29.52;38.82;98957.00;4484721;31;20447;-71
2022/08/03 10:03:29;;;;;;;3.92;3.60;;;;;;;29.77;38.13;98952.88;4496292;31;20096;-71
2022/08/03 10:05:56;;;;;;;3.92;3.60;;;;;;;29.69;37.64;98950.63;4472906;32;20100;-71
2022/08/03 10:08:26;;;;;;;4.12;3.72;;;;;;;29.79;38.16;98958.03;4467155;32;20469;-71
2022/08/03 10:10:53;;;;;;;5.87;3.80;;;;;;;29.47;38.63;98956.16;4482764;32;20100;-71
2022/08/03 10:13:21;;;;;;;6.28;3.92;;;;;;;29.40;39.18;98947.44;4482669;31;20118;-71
2022/08/03 10:15:50;;;;;;;10.82;4.85;;;;;;;29.32;39.11;98946.03;4481774;31;20096;-72
2022/08/03 10:18:37;;;;;;;4.78;4.35;;;;;;;29.06;39.75;98945.75;4466851;32;20073;-71
2022/08/03 10:21:07;;;;;;;5.40;4.12;;;;;;;28.81;40.35;98941.72;4475043;32;20105;-72
2022/08/03 10:23:37;;;;;;;4.32;3.92;;;;;;;29.06;41.06;98943.06;4481386;32;20161;-71
2022/08/03 10:26:07;;;;;;;6.15;4.40;;;;;;;29.18;39.30;98935.63;4481675;32;20135;-71
2022/08/03 10:28:38;;;;;;;4.62;4.12;;;;;;;29.19;40.60;98941.81;4482498;31;20092;-73
2022/08/03 10:31:12;;;;;;;4.60;4.20;;;;;;;29.42;39.92;98937.19;4477030;32;20119;-73
2022/08/03 10:33:42;;;;;;;8.85;3.75;;;;;;;29.58;37.47;98938.16;4482197;31;20732;-73
2022/08/03 10:36:23;;;;;;;8.32;3.65;;;;;;;29.63;37.60;98933.59;4478081;32;20163;-72
2022/08/03 10:38:51;;;;;;;3.83;3.45;;;;;;;30.03;36.37;98929.56;4478237;31;20084;-73
2022/08/03 10:41:25;;;;;;;4.57;3.85;;;;;;;30.26;36.36;98922.94;4478137;32;20104;-72
2022/08/03 10:44:08;;;;;;;7.78;3.83;;;;;;;30.19;36.46;98930.50;4479040;32;20466;-72
2022/08/03 10:46:38;;;;;;;6.07;3.35;;;;;;;29.82;37.08;98927.81;4472978;32;20180;-73
2022/08/03 10:49:14;;;;;;;4.03;3.60;;;;;;;29.32;37.51;98919.84;4477954;32;20076;-71
2022/08/03 10:51:44;;;;;;;4.30;3.17;;;;;;;29.59;37.62;98924.38;4478389;32;20115;-70
2022/08/03 10:54:36;;;;;;;5.53;3.62;;;;;;;29.96;36.68;98912.78;4481625;31;20097;-71
2022/08/03 10:59:53;;;;;;;3.45;3.00;;;;;;;30.89;35.10;98903.19;4480100;32;20092;-71
2022/08/03 11:02:20;;;;;;;3.60;3.05;;;;;;;30.19;35.41;98908.88;4479741;31;20096;-71
2022/08/03 11:05:27;;;;;;;3.03;2.80;;;;;;;30.33;34.84;98905.69;4479285;32;20631;-71
2022/08/03 11:08:16;;;;;;;4.95;3.00;;;;;;;30.23;34.01;98901.84;4480833;32;20092;-71
2022/08/03 11:10:44;;;;;;;3.92;3.00;;;;;;;31.26;33.92;98891.34;4481831;32;20084;-71
2022/08/03 11:13:18;;;;;;;4.78;2.90;;;;;;;31.34;32.65;98891.88;4482374;32;20108;-70
2022/08/03 11:15:48;;;;;;;4.72;3.30;;;;;;;31.28;33.49;98889.19;4480022;32;20104;-71
2022/08/03 11:18:16;;;;;;;4.35;3.58;;;;;;;31.05;34.10;98889.69;4482159;32;20616;-71
2022/08/03 11:20:53;;;;;;;5.55;3.95;;;;;;;30.82;34.53;98886.38;4480823;31;20568;-71
2022/08/03 11:23:44;;;;;;;4.93;4.10;;;;;;;30.68;34.84;98882.59;4481870;32;20226;-71
2022/08/03 11:26:33;;;;;;;3.90;3.60;;;;;;;30.25;35.73;98891.59;4480422;32;20155;-71
2022/08/03 11:29:26;;;;;;;4.68;3.87;;;;;;;30.22;36.08;98889.44;4482088;32;20100;-70
2022/08/03 11:31:53;;;;;;;4.00;3.70;;;;;;;29.90;36.22;98892.22;4481602;32;20088;-71
2022/08/03 11:34:20;;;;;;;5.00;3.97;;;;;;;30.16;36.13;98890.47;4482081;32;20454;-70
2022/08/03 11:37:20;;;;;;;5.75;4.03;;;;;;;30.34;35.34;98885.66;4481039;32;20096;-70
2022/08/03 11:39:51;;;;;;;7.15;4.20;;;;;;;30.15;34.52;98880.75;4481274;32;20096;-71
2022/08/03 11:42:21;;;;;;;4.37;3.70;;;;;;;30.24;35.31;98887.25;4481904;31;20109;-72
2022/08/03 11:44:50;;;;;;;5.78;3.50;;;;;;;30.16;36.77;98882.38;4481937;32;20225;-71
2022/08/03 11:47:17;;;;;;;7.95;3.55;;;;;;;29.93;36.94;98874.69;4482102;31;20480;-71
2022/08/03 11:49:47;;;;;;;4.65;3.53;;;;;;;30.18;36.54;98876.72;4474463;32;20096;-71
2022/08/03 11:52:18;;;;;;;3.45;3.10;;;;;;;29.98;36.33;98877.41;4481130;32;20084;-72
2022/08/03 11:54:54;;;;;;;4.00;3.42;;;;;;;30.02;35.84;98878.50;4478750;32;20100;-71
2022/08/03 11:57:31;;;;;;;5.22;3.50;;;;;;;29.93;35.91;98875.47;4480331;31;20126;-71
2022/08/03 12:00:29;;;;;;;5.07;3.60;;;;;;;30.30;35.53;98874.59;4479602;32;20079;-71
2022/08/03 12:03:01;;;;;;;4.10;3.50;;;;;;;30.54;34.97;98869.56;4479879;32;20145;-72